sensor_id;sensor_type;location;lat;lon;timestamp;P1;durP1;ratioP1;P2;durP2;ratioP2
75691;SDS011;64307;52.508;6.090;2023-03-19T00:01:57;3.50;;;1.75;;
75691;SDS011;64307;52.508;6.090;2023-03-19T00:04:23;3.47;;;1.40;;
75691;SDS011;64307;52.508;6.090;2023-03-19T00:06:50;3.50;;;1.25;;
75691;SDS011;64307;52.508;6.090;2023-03-19T00:09:15;2.95;;;1.95;;
75691;SDS011;64307;52.508;6.090;2023-03-19T00:11:42;3.72;;;1.45;;
75691;SDS011;64307;52.508;6.090;2023-03-19T00:14:07;2.60;;;1.50;;
75691;SDS011;64307;52.508;6.090;2023-03-19T00:16:33;3.40;;;2.60;;
75691;SDS011;64307;52.508;6.090;2023-03-19T00:18:58;3.83;;;1.70;;
75691;SDS011;64307;52.508;6.090;2023-03-19T00:23:49;3.17;;;1.53;;
75691;SDS011;64307;52.508;6.090;2023-03-19T00:28:40;3.88;;;2.67;;
75691;SDS011;64307;52.508;6.090;2023-03-19T00:33:35;4.00;;;1.63;;
75691;SDS011;64307;52.508;6.090;2023-03-19T00:36:00;3.47;;;1.45;;
75691;SDS011;64307;52.508;6.090;2023-03-19T00:40:51;3.77;;;2.70;;
75691;SDS011;64307;52.508;6.090;2023-03-19T00:45:42;4.90;;;2.73;;
75691;SDS011;64307;52.508;6.090;2023-03-19T00:50:32;3.07;;;1.57;;
75691;SDS011;64307;52.508;6.090;2023-03-19T00:55:23;5.60;;;2.67;;
75691;SDS011;64307;52.508;6.090;2023-03-19T00:57:49;5.22;;;2.63;;
75691;SDS011;64307;52.508;6.090;2023-03-19T01:02:41;3.38;;;1.63;;
75691;SDS011;64307;52.508;6.090;2023-03-19T01:05:08;4.35;;;2.05;;
75691;SDS011;64307;52.508;6.090;2023-03-19T01:09:58;3.70;;;1.50;;
75691;SDS011;64307;52.508;6.090;2023-03-19T01:14:49;3.00;;;2.20;;
75691;SDS011;64307;52.508;6.090;2023-03-19T01:19:39;3.00;;;1.47;;
75691;SDS011;64307;52.508;6.090;2023-03-19T01:24:30;3.78;;;2.03;;
75691;SDS011;64307;52.508;6.090;2023-03-19T01:29:21;4.43;;;1.50;;
75691;SDS011;64307;52.508;6.090;2023-03-19T01:34:11;3.23;;;1.73;;
75691;SDS011;64307;52.508;6.090;2023-03-19T01:36:37;4.38;;;1.60;;
75691;SDS011;64307;52.508;6.090;2023-03-19T01:41:28;4.38;;;1.63;;
75691;SDS011;64307;52.508;6.090;2023-03-19T01:43:53;3.25;;;1.60;;
75691;SDS011;64307;52.508;6.090;2023-03-19T01:48:56;3.30;;;1.33;;
75691;SDS011;64307;52.508;6.090;2023-03-19T01:51:45;3.03;;;2.13;;
75691;SDS011;64307;52.508;6.090;2023-03-19T01:54:12;2.75;;;1.52;;
75691;SDS011;64307;52.508;6.090;2023-03-19T01:56:42;3.20;;;1.38;;
75691;SDS011;64307;52.508;6.090;2023-03-19T01:59:18;3.65;;;1.30;;
75691;SDS011;64307;52.508;6.090;2023-03-19T02:02:48;4.82;;;1.88;;
75691;SDS011;64307;52.508;6.090;2023-03-19T02:04:45;3.67;;;1.25;;
75691;SDS011;64307;52.508;6.090;2023-03-19T02:07:13;2.67;;;1.80;;
75691;SDS011;64307;52.508;6.090;2023-03-19T02:09:39;2.97;;;1.20;;
75691;SDS011;64307;52.508;6.090;2023-03-19T02:12:05;2.90;;;1.45;;
75691;SDS011;64307;52.508;6.090;2023-03-19T02:14:32;3.40;;;1.25;;
75691;SDS011;64307;52.508;6.090;2023-03-19T02:16:58;3.92;;;2.53;;
75691;SDS011;64307;52.508;6.090;2023-03-19T02:22:02;2.70;;;1.05;;
75691;SDS011;64307;52.508;6.090;2023-03-19T02:24:31;3.67;;;1.50;;
75691;SDS011;64307;52.508;6.090;2023-03-19T02:27:01;4.43;;;1.23;;
75691;SDS011;64307;52.508;6.090;2023-03-19T02:29:27;4.63;;;1.25;;
75691;SDS011;64307;52.508;6.090;2023-03-19T02:39:27;4.00;;;1.30;;
75691;SDS011;64307;52.508;6.090;2023-03-19T02:41:56;3.88;;;2.50;;
75691;SDS011;64307;52.508;6.090;2023-03-19T02:44:23;3.15;;;1.80;;
75691;SDS011;64307;52.508;6.090;2023-03-19T02:49:14;4.38;;;2.30;;
75691;SDS011;64307;52.508;6.090;2023-03-19T02:54:05;5.05;;;1.60;;
75691;SDS011;64307;52.508;6.090;2023-03-19T02:58:56;2.50;;;0.90;;
75691;SDS011;64307;52.508;6.090;2023-03-19T03:03:47;3.63;;;2.00;;
75691;SDS011;64307;52.508;6.090;2023-03-19T03:08:38;2.72;;;1.27;;
75691;SDS011;64307;52.508;6.090;2023-03-19T03:13:28;5.13;;;1.05;;
75691;SDS011;64307;52.508;6.090;2023-03-19T03:18:19;4.20;;;1.40;;
75691;SDS011;64307;52.508;6.090;2023-03-19T03:23:10;5.70;;;2.00;;
75691;SDS011;64307;52.508;6.090;2023-03-19T03:25:35;4.47;;;2.40;;
75691;SDS011;64307;52.508;6.090;2023-03-19T03:30:27;3.83;;;2.70;;
75691;SDS011;64307;52.508;6.090;2023-03-19T03:35:17;2.83;;;1.40;;
75691;SDS011;64307;52.508;6.090;2023-03-19T03:37:46;5.90;;;2.65;;
75691;SDS011;64307;52.508;6.090;2023-03-19T03:40:13;4.15;;;1.67;;
75691;SDS011;64307;52.508;6.090;2023-03-19T03:42:40;3.72;;;1.85;;
75691;SDS011;64307;52.508;6.090;2023-03-19T03:45:07;3.92;;;2.00;;
75691;SDS011;64307;52.508;6.090;2023-03-19T03:47:34;3.42;;;2.38;;
75691;SDS011;64307;52.508;6.090;2023-03-19T03:52:25;3.53;;;2.40;;
75691;SDS011;64307;52.508;6.090;2023-03-19T03:54:55;4.00;;;1.95;;
75691;SDS011;64307;52.508;6.090;2023-03-19T03:57:22;3.38;;;1.80;;
75691;SDS011;64307;52.508;6.090;2023-03-19T04:02:13;3.60;;;1.90;;
75691;SDS011;64307;52.508;6.090;2023-03-19T04:07:03;3.27;;;1.70;;
75691;SDS011;64307;52.508;6.090;2023-03-19T04:09:29;4.40;;;2.40;;
75691;SDS011;64307;52.508;6.090;2023-03-19T04:14:20;5.60;;;1.97;;
75691;SDS011;64307;52.508;6.090;2023-03-19T04:19:10;4.10;;;3.13;;
75691;SDS011;64307;52.508;6.090;2023-03-19T04:21:36;4.30;;;2.63;;
75691;SDS011;64307;52.508;6.090;2023-03-19T04:26:26;4.97;;;2.50;;
75691;SDS011;64307;52.508;6.090;2023-03-19T04:31:17;4.00;;;2.67;;
75691;SDS011;64307;52.508;6.090;2023-03-19T04:36:08;5.60;;;4.00;;
75691;SDS011;64307;52.508;6.090;2023-03-19T04:38:35;6.07;;;2.40;;
75691;SDS011;64307;52.508;6.090;2023-03-19T04:41:00;4.78;;;3.63;;
75691;SDS011;64307;52.508;6.090;2023-03-19T04:45:52;4.70;;;2.72;;
75691;SDS011;64307;52.508;6.090;2023-03-19T04:50:43;4.20;;;2.70;;
75691;SDS011;64307;52.508;6.090;2023-03-19T04:53:11;4.72;;;2.97;;
75691;SDS011;64307;52.508;6.090;2023-03-19T04:58:02;4.80;;;3.67;;
75691;SDS011;64307;52.508;6.090;2023-03-19T05:00:28;5.38;;;2.63;;
75691;SDS011;64307;52.508;6.090;2023-03-19T05:02:54;7.13;;;3.90;;
75691;SDS011;64307;52.508;6.090;2023-03-19T05:07:46;4.80;;;2.83;;
75691;SDS011;64307;52.508;6.090;2023-03-19T05:10:11;6.13;;;3.50;;
75691;SDS011;64307;52.508;6.090;2023-03-19T05:12:36;4.13;;;2.67;;
75691;SDS011;64307;52.508;6.090;2023-03-19T05:15:02;5.40;;;3.40;;
75691;SDS011;64307;52.508;6.090;2023-03-19T05:17:30;5.63;;;2.88;;
75691;SDS011;64307;52.508;6.090;2023-03-19T05:19:56;5.82;;;2.95;;
75691;SDS011;64307;52.508;6.090;2023-03-19T05:24:47;5.72;;;3.25;;
75691;SDS011;64307;52.508;6.090;2023-03-19T05:27:13;6.40;;;4.20;;
75691;SDS011;64307;52.508;6.090;2023-03-19T05:29:38;6.22;;;4.47;;
75691;SDS011;64307;52.508;6.090;2023-03-19T05:32:05;6.32;;;4.88;;
75691;SDS011;64307;52.508;6.090;2023-03-19T05:36:57;5.28;;;3.53;;
75691;SDS011;64307;52.508;6.090;2023-03-19T05:41:47;6.07;;;3.37;;
75691;SDS011;64307;52.508;6.090;2023-03-19T05:44:12;5.63;;;3.35;;
75691;SDS011;64307;52.508;6.090;2023-03-19T05:46:38;6.33;;;4.67;;
75691;SDS011;64307;52.508;6.090;2023-03-19T05:49:03;5.33;;;3.20;;
75691;SDS011;64307;52.508;6.090;2023-03-19T05:51:29;6.25;;;4.05;;
75691;SDS011;64307;52.508;6.090;2023-03-19T05:53:55;6.72;;;4.05;;
75691;SDS011;64307;52.508;6.090;2023-03-19T05:56:20;6.82;;;3.60;;
75691;SDS011;64307;52.508;6.090;2023-03-19T05:58:46;6.40;;;3.53;;
75691;SDS011;64307;52.508;6.090;2023-03-19T06:01:11;5.47;;;3.33;;
75691;SDS011;64307;52.508;6.090;2023-03-19T06:03:36;6.13;;;3.40;;
75691;SDS011;64307;52.508;6.090;2023-03-19T06:06:02;7.43;;;4.13;;
75691;SDS011;64307;52.508;6.090;2023-03-19T06:08:27;7.13;;;3.70;;
75691;SDS011;64307;52.508;6.090;2023-03-19T06:10:52;8.73;;;4.13;;
75691;SDS011;64307;52.508;6.090;2023-03-19T06:13:18;5.78;;;3.65;;
75691;SDS011;64307;52.508;6.090;2023-03-19T06:18:09;6.40;;;4.00;;
75691;SDS011;64307;52.508;6.090;2023-03-19T06:20:35;6.72;;;5.00;;
75691;SDS011;64307;52.508;6.090;2023-03-19T06:23:00;6.63;;;3.80;;
75691;SDS011;64307;52.508;6.090;2023-03-19T06:27:51;7.27;;;3.57;;
75691;SDS011;64307;52.508;6.090;2023-03-19T06:32:41;8.40;;;3.43;;
75691;SDS011;64307;52.508;6.090;2023-03-19T06:37:33;5.75;;;3.55;;
75691;SDS011;64307;52.508;6.090;2023-03-19T06:42:23;6.97;;;3.87;;
75691;SDS011;64307;52.508;6.090;2023-03-19T06:47:14;7.57;;;4.53;;
75691;SDS011;64307;52.508;6.090;2023-03-19T06:52:05;7.55;;;4.30;;
75691;SDS011;64307;52.508;6.090;2023-03-19T06:56:56;7.68;;;4.90;;
75691;SDS011;64307;52.508;6.090;2023-03-19T07:01:47;8.93;;;5.23;;
75691;SDS011;64307;52.508;6.090;2023-03-19T07:04:12;8.80;;;5.43;;
75691;SDS011;64307;52.508;6.090;2023-03-19T07:06:37;8.85;;;6.45;;
75691;SDS011;64307;52.508;6.090;2023-03-19T07:09:02;8.43;;;5.30;;
75691;SDS011;64307;52.508;6.090;2023-03-19T07:11:28;8.05;;;6.22;;
75691;SDS011;64307;52.508;6.090;2023-03-19T07:13:53;7.95;;;6.10;;
75691;SDS011;64307;52.508;6.090;2023-03-19T07:16:20;9.68;;;6.40;;
75691;SDS011;64307;52.508;6.090;2023-03-19T07:18:45;9.10;;;5.60;;
75691;SDS011;64307;52.508;6.090;2023-03-19T07:21:10;9.32;;;5.97;;
75691;SDS011;64307;52.508;6.090;2023-03-19T07:23:36;7.47;;;4.78;;
75691;SDS011;64307;52.508;6.090;2023-03-19T07:26:01;7.50;;;5.70;;
75691;SDS011;64307;52.508;6.090;2023-03-19T07:28:27;10.18;;;5.88;;
75691;SDS011;64307;52.508;6.090;2023-03-19T07:30:54;8.98;;;5.55;;
75691;SDS011;64307;52.508;6.090;2023-03-19T07:33:20;7.20;;;5.22;;
75691;SDS011;64307;52.508;6.090;2023-03-19T07:35:45;8.60;;;5.53;;
75691;SDS011;64307;52.508;6.090;2023-03-19T07:38:11;8.73;;;6.18;;
75691;SDS011;64307;52.508;6.090;2023-03-19T07:40:36;8.45;;;6.25;;
75691;SDS011;64307;52.508;6.090;2023-03-19T07:43:02;8.82;;;6.22;;
75691;SDS011;64307;52.508;6.090;2023-03-19T07:45:28;9.40;;;6.40;;
75691;SDS011;64307;52.508;6.090;2023-03-19T07:47:53;10.95;;;7.13;;
75691;SDS011;64307;52.508;6.090;2023-03-19T07:50:19;9.85;;;6.90;;
75691;SDS011;64307;52.508;6.090;2023-03-19T07:52:47;8.02;;;5.55;;
75691;SDS011;64307;52.508;6.090;2023-03-19T07:55:15;9.18;;;6.30;;
75691;SDS011;64307;52.508;6.090;2023-03-19T07:57:40;9.30;;;6.10;;
75691;SDS011;64307;52.508;6.090;2023-03-19T08:00:06;9.07;;;5.95;;
75691;SDS011;64307;52.508;6.090;2023-03-19T08:02:33;10.63;;;6.55;;
75691;SDS011;64307;52.508;6.090;2023-03-19T08:04:58;8.80;;;6.10;;
75691;SDS011;64307;52.508;6.090;2023-03-19T08:07:26;8.35;;;5.82;;
75691;SDS011;64307;52.508;6.090;2023-03-19T08:09:51;9.77;;;6.78;;
75691;SDS011;64307;52.508;6.090;2023-03-19T08:12:17;8.93;;;6.28;;
75691;SDS011;64307;52.508;6.090;2023-03-19T08:14:42;9.85;;;6.40;;
75691;SDS011;64307;52.508;6.090;2023-03-19T08:17:07;11.02;;;7.47;;
75691;SDS011;64307;52.508;6.090;2023-03-19T08:19:33;9.38;;;6.57;;
75691;SDS011;64307;52.508;6.090;2023-03-19T08:21:59;8.98;;;6.43;;
75691;SDS011;64307;52.508;6.090;2023-03-19T08:24:24;8.43;;;5.60;;
75691;SDS011;64307;52.508;6.090;2023-03-19T08:26:50;9.52;;;7.45;;
75691;SDS011;64307;52.508;6.090;2023-03-19T08:29:15;7.97;;;5.22;;
75691;SDS011;64307;52.508;6.090;2023-03-19T08:31:40;10.32;;;6.90;;
75691;SDS011;64307;52.508;6.090;2023-03-19T08:34:07;8.30;;;5.68;;
75691;SDS011;64307;52.508;6.090;2023-03-19T08:36:34;9.00;;;5.38;;
75691;SDS011;64307;52.508;6.090;2023-03-19T08:39:00;8.15;;;5.20;;
75691;SDS011;64307;52.508;6.090;2023-03-19T08:41:25;10.65;;;7.15;;
75691;SDS011;64307;52.508;6.090;2023-03-19T08:43:51;8.85;;;6.05;;
75691;SDS011;64307;52.508;6.090;2023-03-19T08:46:17;11.30;;;7.45;;
75691;SDS011;64307;52.508;6.090;2023-03-19T08:48:43;9.35;;;5.65;;
75691;SDS011;64307;52.508;6.090;2023-03-19T08:51:09;7.95;;;5.50;;
75691;SDS011;64307;52.508;6.090;2023-03-19T08:53:35;9.27;;;6.18;;
75691;SDS011;64307;52.508;6.090;2023-03-19T08:56:02;10.20;;;7.03;;
75691;SDS011;64307;52.508;6.090;2023-03-19T08:58:29;11.23;;;6.43;;
75691;SDS011;64307;52.508;6.090;2023-03-19T09:01:01;9.73;;;6.50;;
75691;SDS011;64307;52.508;6.090;2023-03-19T09:03:32;13.13;;;8.13;;
75691;SDS011;64307;52.508;6.090;2023-03-19T09:05:59;12.00;;;6.90;;
75691;SDS011;64307;52.508;6.090;2023-03-19T09:08:25;12.57;;;7.10;;
75691;SDS011;64307;52.508;6.090;2023-03-19T09:10:52;12.63;;;7.50;;
75691;SDS011;64307;52.508;6.090;2023-03-19T09:13:17;11.95;;;7.43;;
75691;SDS011;64307;52.508;6.090;2023-03-19T09:15:42;14.63;;;9.23;;
75691;SDS011;64307;52.508;6.090;2023-03-19T09:18:07;15.02;;;10.25;;
75691;SDS011;64307;52.508;6.090;2023-03-19T09:20:33;15.00;;;8.83;;
75691;SDS011;64307;52.508;6.090;2023-03-19T09:22:58;16.10;;;8.65;;
75691;SDS011;64307;52.508;6.090;2023-03-19T09:25:23;15.80;;;9.40;;
75691;SDS011;64307;52.508;6.090;2023-03-19T09:27:48;15.43;;;9.90;;
75691;SDS011;64307;52.508;6.090;2023-03-19T09:30:14;16.83;;;11.27;;
75691;SDS011;64307;52.508;6.090;2023-03-19T09:32:40;16.98;;;10.18;;
75691;SDS011;64307;52.508;6.090;2023-03-19T09:35:05;16.17;;;9.05;;
75691;SDS011;64307;52.508;6.090;2023-03-19T09:37:31;17.67;;;11.55;;
75691;SDS011;64307;52.508;6.090;2023-03-19T09:39:57;17.30;;;10.55;;
75691;SDS011;64307;52.508;6.090;2023-03-19T09:45:17;16.17;;;9.57;;
75691;SDS011;64307;52.508;6.090;2023-03-19T09:47:44;18.83;;;10.82;;
75691;SDS011;64307;52.508;6.090;2023-03-19T09:50:14;16.02;;;9.82;;
75691;SDS011;64307;52.508;6.090;2023-03-19T09:58:17;17.17;;;10.00;;
75691;SDS011;64307;52.508;6.090;2023-03-19T10:00:46;17.20;;;10.43;;
75691;SDS011;64307;52.508;6.090;2023-03-19T10:14:42;17.77;;;11.30;;
75691;SDS011;64307;52.508;6.090;2023-03-19T10:17:13;17.20;;;10.70;;
75691;SDS011;64307;52.508;6.090;2023-03-19T10:22:13;18.13;;;10.73;;
75691;SDS011;64307;52.508;6.090;2023-03-19T10:24:43;16.83;;;11.55;;
75691;SDS011;64307;52.508;6.090;2023-03-19T10:27:12;17.02;;;11.18;;
75691;SDS011;64307;52.508;6.090;2023-03-19T10:29:39;17.40;;;12.38;;
75691;SDS011;64307;52.508;6.090;2023-03-19T10:34:47;17.65;;;11.10;;
75691;SDS011;64307;52.508;6.090;2023-03-19T10:39:50;15.15;;;11.18;;
75691;SDS011;64307;52.508;6.090;2023-03-19T10:45:23;16.77;;;11.18;;
75691;SDS011;64307;52.508;6.090;2023-03-19T10:47:56;19.40;;;12.50;;
75691;SDS011;64307;52.508;6.090;2023-03-19T10:50:30;19.25;;;13.70;;
75691;SDS011;64307;52.508;6.090;2023-03-19T10:55:30;17.50;;;11.02;;
75691;SDS011;64307;52.508;6.090;2023-03-19T10:58:01;20.65;;;14.27;;
75691;SDS011;64307;52.508;6.090;2023-03-19T11:00:29;15.60;;;11.50;;
75691;SDS011;64307;52.508;6.090;2023-03-19T11:02:57;16.05;;;11.32;;
75691;SDS011;64307;52.508;6.090;2023-03-19T11:05:27;16.90;;;12.45;;
75691;SDS011;64307;52.508;6.090;2023-03-19T11:07:54;15.82;;;10.52;;
75691;SDS011;64307;52.508;6.090;2023-03-19T11:10:25;16.33;;;11.95;;
75691;SDS011;64307;52.508;6.090;2023-03-19T11:12:57;15.40;;;10.93;;
75691;SDS011;64307;52.508;6.090;2023-03-19T11:15:45;18.00;;;12.10;;
75691;SDS011;64307;52.508;6.090;2023-03-19T11:18:15;16.35;;;12.77;;
75691;SDS011;64307;52.508;6.090;2023-03-19T11:20:48;17.77;;;11.52;;
75691;SDS011;64307;52.508;6.090;2023-03-19T11:23:30;16.92;;;9.75;;
75691;SDS011;64307;52.508;6.090;2023-03-19T11:26:03;16.30;;;11.80;;
75691;SDS011;64307;52.508;6.090;2023-03-19T11:28:29;15.63;;;9.82;;
75691;SDS011;64307;52.508;6.090;2023-03-19T11:30:59;17.75;;;10.13;;
75691;SDS011;64307;52.508;6.090;2023-03-19T11:51:43;15.32;;;9.43;;
75691;SDS011;64307;52.508;6.090;2023-03-19T11:57:02;17.30;;;11.48;;
75691;SDS011;64307;52.508;6.090;2023-03-19T11:59:39;15.13;;;11.02;;
75691;SDS011;64307;52.508;6.090;2023-03-19T12:07:57;14.82;;;9.95;;
75691;SDS011;64307;52.508;6.090;2023-03-19T12:18:40;15.45;;;9.55;;
75691;SDS011;64307;52.508;6.090;2023-03-19T12:24:03;15.00;;;11.52;;
75691;SDS011;64307;52.508;6.090;2023-03-19T12:27:09;14.60;;;9.95;;
75691;SDS011;64307;52.508;6.090;2023-03-19T12:32:35;16.95;;;10.60;;
75691;SDS011;64307;52.508;6.090;2023-03-19T12:35:13;17.25;;;10.48;;
75691;SDS011;64307;52.508;6.090;2023-03-19T12:37:53;16.63;;;11.00;;
75691;SDS011;64307;52.508;6.090;2023-03-19T12:40:37;17.35;;;10.93;;
75691;SDS011;64307;52.508;6.090;2023-03-19T12:43:16;15.73;;;10.38;;
75691;SDS011;64307;52.508;6.090;2023-03-19T12:45:44;17.77;;;11.10;;
75691;SDS011;64307;52.508;6.090;2023-03-19T12:48:22;17.92;;;10.48;;
75691;SDS011;64307;52.508;6.090;2023-03-19T12:50:52;18.52;;;11.25;;
75691;SDS011;64307;52.508;6.090;2023-03-19T12:53:32;18.20;;;10.65;;
75691;SDS011;64307;52.508;6.090;2023-03-19T12:56:48;18.13;;;10.57;;
75691;SDS011;64307;52.508;6.090;2023-03-19T13:01:38;17.55;;;10.48;;
75691;SDS011;64307;52.508;6.090;2023-03-19T13:04:19;18.85;;;10.75;;
75691;SDS011;64307;52.508;6.090;2023-03-19T13:06:52;18.60;;;10.77;;
75691;SDS011;64307;52.508;6.090;2023-03-19T13:09:24;16.25;;;9.90;;
75691;SDS011;64307;52.508;6.090;2023-03-19T13:11:57;16.75;;;10.40;;
75691;SDS011;64307;52.508;6.090;2023-03-19T13:14:31;15.95;;;9.20;;
75691;SDS011;64307;52.508;6.090;2023-03-19T13:17:14;16.08;;;9.73;;
75691;SDS011;64307;52.508;6.090;2023-03-19T13:19:51;15.73;;;9.52;;
75691;SDS011;64307;52.508;6.090;2023-03-19T13:22:24;16.90;;;11.52;;
75691;SDS011;64307;52.508;6.090;2023-03-19T13:24:53;17.20;;;11.02;;
75691;SDS011;64307;52.508;6.090;2023-03-19T13:27:29;18.30;;;10.57;;
75691;SDS011;64307;52.508;6.090;2023-03-19T13:32:35;20.50;;;11.15;;
75691;SDS011;64307;52.508;6.090;2023-03-19T13:43:23;21.30;;;12.88;;
75691;SDS011;64307;52.508;6.090;2023-03-19T13:48:37;15.82;;;8.80;;
75691;SDS011;64307;52.508;6.090;2023-03-19T13:53:40;15.17;;;8.27;;
75691;SDS011;64307;52.508;6.090;2023-03-19T13:56:16;16.70;;;9.07;;
75691;SDS011;64307;52.508;6.090;2023-03-19T13:58:44;18.83;;;9.75;;
75691;SDS011;64307;52.508;6.090;2023-03-19T14:01:34;17.83;;;11.05;;
75691;SDS011;64307;52.508;6.090;2023-03-19T14:04:05;18.55;;;9.25;;
75691;SDS011;64307;52.508;6.090;2023-03-19T14:06:46;17.38;;;8.80;;
75691;SDS011;64307;52.508;6.090;2023-03-19T14:09:39;19.08;;;9.85;;
75691;SDS011;64307;52.508;6.090;2023-03-19T14:14:45;19.77;;;10.40;;
75691;SDS011;64307;52.508;6.090;2023-03-19T14:17:21;19.20;;;9.80;;
75691;SDS011;64307;52.508;6.090;2023-03-19T14:22:36;19.40;;;9.93;;
75691;SDS011;64307;52.508;6.090;2023-03-19T14:25:14;19.63;;;9.05;;
75691;SDS011;64307;52.508;6.090;2023-03-19T14:27:48;16.70;;;8.90;;
75691;SDS011;64307;52.508;6.090;2023-03-19T14:30:34;16.98;;;9.00;;
75691;SDS011;64307;52.508;6.090;2023-03-19T14:33:04;16.80;;;8.95;;
75691;SDS011;64307;52.508;6.090;2023-03-19T14:35:40;18.17;;;8.18;;
75691;SDS011;64307;52.508;6.090;2023-03-19T14:38:14;16.60;;;8.18;;
75691;SDS011;64307;52.508;6.090;2023-03-19T14:41:06;17.77;;;8.68;;
75691;SDS011;64307;52.508;6.090;2023-03-19T14:47:03;17.83;;;8.05;;
75691;SDS011;64307;52.508;6.090;2023-03-19T14:49:52;21.35;;;9.35;;
75691;SDS011;64307;52.508;6.090;2023-03-19T14:52:45;21.50;;;9.25;;
75691;SDS011;64307;52.508;6.090;2023-03-19T14:55:18;18.65;;;8.52;;
75691;SDS011;64307;52.508;6.090;2023-03-19T14:57:43;21.88;;;8.25;;
75691;SDS011;64307;52.508;6.090;2023-03-19T15:00:13;19.00;;;8.15;;
75691;SDS011;64307;52.508;6.090;2023-03-19T15:02:44;19.58;;;8.68;;
75691;SDS011;64307;52.508;6.090;2023-03-19T15:05:20;20.05;;;9.77;;
75691;SDS011;64307;52.508;6.090;2023-03-19T15:07:59;19.58;;;9.60;;
75691;SDS011;64307;52.508;6.090;2023-03-19T15:10:27;16.77;;;8.02;;
75691;SDS011;64307;52.508;6.090;2023-03-19T15:16:11;17.73;;;8.20;;
75691;SDS011;64307;52.508;6.090;2023-03-19T15:18:47;17.08;;;8.90;;
75691;SDS011;64307;52.508;6.090;2023-03-19T15:21:13;16.23;;;7.22;;
75691;SDS011;64307;52.508;6.090;2023-03-19T15:23:39;18.38;;;7.75;;
75691;SDS011;64307;52.508;6.090;2023-03-19T15:26:05;16.60;;;7.97;;
75691;SDS011;64307;52.508;6.090;2023-03-19T15:28:46;17.65;;;8.25;;
75691;SDS011;64307;52.508;6.090;2023-03-19T15:31:15;17.02;;;7.70;;
75691;SDS011;64307;52.508;6.090;2023-03-19T15:33:42;21.75;;;8.63;;
75691;SDS011;64307;52.508;6.090;2023-03-19T15:36:22;16.20;;;7.82;;
75691;SDS011;64307;52.508;6.090;2023-03-19T15:38:59;20.45;;;9.52;;
75691;SDS011;64307;52.508;6.090;2023-03-19T15:41:29;22.02;;;10.38;;
75691;SDS011;64307;52.508;6.090;2023-03-19T15:46:30;21.48;;;10.13;;
75691;SDS011;64307;52.508;6.090;2023-03-19T15:49:01;19.00;;;9.55;;
75691;SDS011;64307;52.508;6.090;2023-03-19T15:51:32;19.98;;;10.60;;
75691;SDS011;64307;52.508;6.090;2023-03-19T15:53:58;21.08;;;10.10;;
75691;SDS011;64307;52.508;6.090;2023-03-19T15:56:26;22.40;;;10.30;;
75691;SDS011;64307;52.508;6.090;2023-03-19T15:58:53;21.45;;;10.60;;
75691;SDS011;64307;52.508;6.090;2023-03-19T16:01:21;20.58;;;8.63;;
75691;SDS011;64307;52.508;6.090;2023-03-19T16:03:51;23.20;;;10.50;;
75691;SDS011;64307;52.508;6.090;2023-03-19T16:06:23;25.30;;;10.98;;
75691;SDS011;64307;52.508;6.090;2023-03-19T16:08:52;27.10;;;12.50;;
75691;SDS011;64307;52.508;6.090;2023-03-19T16:13:58;30.38;;;13.27;;
75691;SDS011;64307;52.508;6.090;2023-03-19T16:16:29;29.50;;;12.13;;
75691;SDS011;64307;52.508;6.090;2023-03-19T16:18:56;31.05;;;13.82;;
75691;SDS011;64307;52.508;6.090;2023-03-19T16:21:32;32.50;;;13.52;;
75691;SDS011;64307;52.508;6.090;2023-03-19T16:24:05;30.88;;;12.20;;
75691;SDS011;64307;52.508;6.090;2023-03-19T16:26:48;31.13;;;11.77;;
75691;SDS011;64307;52.508;6.090;2023-03-19T16:29:23;26.75;;;11.45;;
75691;SDS011;64307;52.508;6.090;2023-03-19T16:32:13;28.67;;;12.13;;
75691;SDS011;64307;52.508;6.090;2023-03-19T16:37:30;31.95;;;15.38;;
75691;SDS011;64307;52.508;6.090;2023-03-19T16:40:07;36.20;;;15.30;;
75691;SDS011;64307;52.508;6.090;2023-03-19T16:42:48;29.70;;;13.35;;
75691;SDS011;64307;52.508;6.090;2023-03-19T16:47:40;29.20;;;11.90;;
75691;SDS011;64307;52.508;6.090;2023-03-19T16:50:10;33.28;;;15.27;;
75691;SDS011;64307;52.508;6.090;2023-03-19T16:52:36;31.33;;;13.40;;
75691;SDS011;64307;52.508;6.090;2023-03-19T16:55:04;40.42;;;17.15;;
75691;SDS011;64307;52.508;6.090;2023-03-19T16:58:00;38.08;;;16.80;;
75691;SDS011;64307;52.508;6.090;2023-03-19T17:00:28;38.13;;;15.80;;
75691;SDS011;64307;52.508;6.090;2023-03-19T17:02:55;35.50;;;15.10;;
75691;SDS011;64307;52.508;6.090;2023-03-19T17:05:21;42.65;;;17.88;;
75691;SDS011;64307;52.508;6.090;2023-03-19T17:07:47;41.97;;;17.73;;
75691;SDS011;64307;52.508;6.090;2023-03-19T17:10:14;37.35;;;15.25;;
75691;SDS011;64307;52.508;6.090;2023-03-19T17:12:41;29.85;;;12.85;;
75691;SDS011;64307;52.508;6.090;2023-03-19T17:15:13;33.38;;;13.43;;
75691;SDS011;64307;52.508;6.090;2023-03-19T17:17:46;33.97;;;13.20;;
75691;SDS011;64307;52.508;6.090;2023-03-19T17:20:15;32.58;;;12.88;;
75691;SDS011;64307;52.508;6.090;2023-03-19T17:22:42;30.13;;;14.23;;
75691;SDS011;64307;52.508;6.090;2023-03-19T17:25:10;31.10;;;14.67;;
75691;SDS011;64307;52.508;6.090;2023-03-19T17:27:37;31.55;;;13.32;;
75691;SDS011;64307;52.508;6.090;2023-03-19T17:30:02;32.85;;;15.55;;
75691;SDS011;64307;52.508;6.090;2023-03-19T17:34:53;31.35;;;12.98;;
75691;SDS011;64307;52.508;6.090;2023-03-19T17:37:19;29.80;;;12.30;;
75691;SDS011;64307;52.508;6.090;2023-03-19T17:39:44;27.02;;;12.70;;
75691;SDS011;64307;52.508;6.090;2023-03-19T17:44:40;27.95;;;12.88;;
75691;SDS011;64307;52.508;6.090;2023-03-19T17:47:07;30.07;;;12.93;;
75691;SDS011;64307;52.508;6.090;2023-03-19T17:49:33;32.30;;;14.60;;
75691;SDS011;64307;52.508;6.090;2023-03-19T17:51:59;48.47;;;18.08;;
75691;SDS011;64307;52.508;6.090;2023-03-19T17:54:24;39.00;;;16.70;;
75691;SDS011;64307;52.508;6.090;2023-03-19T17:56:51;40.42;;;16.85;;
75691;SDS011;64307;52.508;6.090;2023-03-19T18:01:42;37.20;;;15.52;;
75691;SDS011;64307;52.508;6.090;2023-03-19T18:06:39;36.13;;;14.85;;
75691;SDS011;64307;52.508;6.090;2023-03-19T18:09:10;32.88;;;13.60;;
75691;SDS011;64307;52.508;6.090;2023-03-19T18:11:43;38.10;;;14.05;;
75691;SDS011;64307;52.508;6.090;2023-03-19T18:16:33;50.07;;;20.33;;
75691;SDS011;64307;52.508;6.090;2023-03-19T18:21:27;46.75;;;19.40;;
75691;SDS011;64307;52.508;6.090;2023-03-19T18:23:54;35.67;;;14.38;;
75691;SDS011;64307;52.508;6.090;2023-03-19T18:26:21;37.03;;;15.23;;
75691;SDS011;64307;52.508;6.090;2023-03-19T18:31:17;38.65;;;14.60;;
75691;SDS011;64307;52.508;6.090;2023-03-19T18:33:47;37.20;;;17.15;;
75691;SDS011;64307;52.508;6.090;2023-03-19T18:36:19;38.65;;;14.38;;
75691;SDS011;64307;52.508;6.090;2023-03-19T18:38:47;37.10;;;15.68;;
75691;SDS011;64307;52.508;6.090;2023-03-19T18:43:42;33.67;;;13.05;;
75691;SDS011;64307;52.508;6.090;2023-03-19T18:48:36;28.25;;;11.45;;
75691;SDS011;64307;52.508;6.090;2023-03-19T18:53:26;39.67;;;15.37;;
75691;SDS011;64307;52.508;6.090;2023-03-19T18:55:53;31.75;;;12.60;;
75691;SDS011;64307;52.508;6.090;2023-03-19T19:00:49;24.17;;;11.55;;
75691;SDS011;64307;52.508;6.090;2023-03-19T19:03:16;28.67;;;12.55;;
75691;SDS011;64307;52.508;6.090;2023-03-19T19:05:44;31.30;;;15.07;;
75691;SDS011;64307;52.508;6.090;2023-03-19T19:10:40;42.53;;;17.15;;
75691;SDS011;64307;52.508;6.090;2023-03-19T19:13:16;42.38;;;19.67;;
75691;SDS011;64307;52.508;6.090;2023-03-19T19:15:45;26.48;;;12.60;;
75691;SDS011;64307;52.508;6.090;2023-03-19T19:20:44;22.67;;;10.05;;
75691;SDS011;64307;52.508;6.090;2023-03-19T19:23:11;23.45;;;10.48;;
75691;SDS011;64307;52.508;6.090;2023-03-19T19:25:37;21.38;;;10.07;;